Alverca, Portugal

1:05 AM WEST on October 22, 2014 (GMT +0100)
Lisboa - Forte da casa | Change Station
CLOSE
Current Station
Personal Weather Station
Location: Forte Da Casa, LISBOA
Elevation: 135 ft
Nearby Weather Stations

Elev 135 ft 38.87 °N, 9.06 °W | Updated 4 minutes ago

Clear
Clear
73.6 °F
Feels Like 77 °F
N
0.0
Wind Variable Wind from North
Gusts 0.0 mph

Today
High -- | Low -- °F
--% Chance of Precip.
Yesterday
High -- | Low -- °F
Precip. -- in
7:52 AM 6:48 PM
Waning Crescent, 4% visible
Pressure 30.30 in
Visibility -9999.0 miles
Clouds
Heat Index 77 °F
Dew Point 55 °F
Humidity 55%
Rainfall 0.00 in
Snow Depth Not available.
UV Not available.
Pollen Not available.
Air Quality Not available.
Flu Activity Not available.
METAR LPPT 212330Z 34004KT CAVOK 23/14 Q1026

More Conditions Fewer Conditions

Pressure 30.30 in
Visibility -9999.0 miles
Clouds
Heat Index 77 °F
Dew Point 55 °F
Humidity 55%
Rainfall 0.00 in
Snow Depth Not available.
UV Not available.
Pollen Not available.
Air Quality Not available.
Flu Activity Not available.
METAR LPPT 212330Z 34004KT CAVOK 23/14 Q1026

More Conditions Fewer Conditions

10-Day Weather Forecast

Almanac

Astronomy

Oct. 22, 2014 Rise Set
Actual Time 7:52 AM WEST 6:48 PM WEST
Civil Twilight 7:25 AM WEST 7:15 PM WEST
Nautical Twilight 6:54 AM WEST 7:46 PM WEST
Astronomical Twilight 6:23 AM WEST 8:17 PM WEST
Moon 6:21 AM WEST 6:06 PM WEST
Length of Visible Light 11h 49m
Length of Day
10h 55m
Tomorrow will be 2m 23s shorter.
Waning Crescent, 4% of the Moon is Illuminated
Oct 21
Waning Crescent
Oct 23
New
Oct 30
First Quarter
Nov 6
Full
Nov 14
Last Quarter

Yesterday's Extremes

Country Highs Country Lows

Community

WunderPhotos

Upload Photos

1,763,824 photos uploaded!

Nearby

Snow Depth

Not available.

Earthquake Activity

City Distance Mag. Time & Date
No recent earthquake activity has been reported nearby.
Minimum magnitude displayed is 2.5.

Coastal Water Temperatures

Place Temperature
No Stations Reporting

Nearby Weather Stations